sensor_id;sensor_type;location;lat;lon;timestamp;P1;durP1;ratioP1;P2;durP2;ratioP2
26082;SDS011;13848;49.018;12.078;2023-06-22T00:00:44;7.57;;;5.70;;
26082;SDS011;13848;49.018;12.078;2023-06-22T00:03:10;9.65;;;5.82;;
26082;SDS011;13848;49.018;12.078;2023-06-22T00:05:36;8.10;;;5.40;;
26082;SDS011;13848;49.018;12.078;2023-06-22T00:08:02;14.40;;;6.38;;
26082;SDS011;13848;49.018;12.078;2023-06-22T00:10:30;11.48;;;6.00;;
26082;SDS011;13848;49.018;12.078;2023-06-22T00:12:56;8.32;;;5.72;;
26082;SDS011;13848;49.018;12.078;2023-06-22T00:15:22;9.35;;;5.88;;
26082;SDS011;13848;49.018;12.078;2023-06-22T00:17:48;10.73;;;5.85;;
26082;SDS011;13848;49.018;12.078;2023-06-22T00:20:14;9.05;;;6.32;;
26082;SDS011;13848;49.018;12.078;2023-06-22T00:22:40;12.68;;;7.65;;
26082;SDS011;13848;49.018;12.078;2023-06-22T00:25:07;10.20;;;7.97;;
26082;SDS011;13848;49.018;12.078;2023-06-22T00:27:34;9.15;;;7.00;;
26082;SDS011;13848;49.018;12.078;2023-06-22T00:30:00;10.85;;;7.45;;
26082;SDS011;13848;49.018;12.078;2023-06-22T00:32:26;12.52;;;7.50;;
26082;SDS011;13848;49.018;12.078;2023-06-22T00:34:52;11.70;;;7.38;;
26082;SDS011;13848;49.018;12.078;2023-06-22T00:37:18;10.73;;;7.57;;
26082;SDS011;13848;49.018;12.078;2023-06-22T00:39:44;9.05;;;6.53;;
26082;SDS011;13848;49.018;12.078;2023-06-22T00:42:10;10.18;;;7.53;;
26082;SDS011;13848;49.018;12.078;2023-06-22T00:44:37;9.63;;;6.75;;
26082;SDS011;13848;49.018;12.078;2023-06-22T00:47:03;9.80;;;6.88;;
26082;SDS011;13848;49.018;12.078;2023-06-22T00:49:30;9.15;;;6.93;;
26082;SDS011;13848;49.018;12.078;2023-06-22T00:51:57;10.02;;;7.00;;
26082;SDS011;13848;49.018;12.078;2023-06-22T00:54:23;11.45;;;6.90;;
26082;SDS011;13848;49.018;12.078;2023-06-22T00:56:49;9.05;;;6.75;;
26082;SDS011;13848;49.018;12.078;2023-06-22T00:59:16;11.55;;;7.47;;
26082;SDS011;13848;49.018;12.078;2023-06-22T01:01:43;10.93;;;7.05;;
26082;SDS011;13848;49.018;12.078;2023-06-22T01:04:10;8.52;;;6.32;;
26082;SDS011;13848;49.018;12.078;2023-06-22T01:06:38;8.63;;;6.55;;
26082;SDS011;13848;49.018;12.078;2023-06-22T01:09:11;8.30;;;6.40;;
26082;SDS011;13848;49.018;12.078;2023-06-22T01:11:41;7.88;;;6.53;;
26082;SDS011;13848;49.018;12.078;2023-06-22T01:14:12;10.68;;;5.88;;
26082;SDS011;13848;49.018;12.078;2023-06-22T01:16:47;13.35;;;6.45;;
26082;SDS011;13848;49.018;12.078;2023-06-22T01:19:20;9.10;;;5.75;;
26082;SDS011;13848;49.018;12.078;2023-06-22T01:21:54;10.48;;;7.25;;
26082;SDS011;13848;49.018;12.078;2023-06-22T01:24:22;11.73;;;6.30;;
26082;SDS011;13848;49.018;12.078;2023-06-22T01:26:54;7.40;;;6.03;;
26082;SDS011;13848;49.018;12.078;2023-06-22T01:29:29;8.40;;;5.78;;
26082;SDS011;13848;49.018;12.078;2023-06-22T01:31:57;10.40;;;5.72;;
26082;SDS011;13848;49.018;12.078;2023-06-22T01:34:25;9.00;;;6.60;;
26082;SDS011;13848;49.018;12.078;2023-06-22T01:36:53;10.57;;;6.60;;
26082;SDS011;13848;49.018;12.078;2023-06-22T01:39:19;11.82;;;5.60;;
26082;SDS011;13848;49.018;12.078;2023-06-22T01:41:47;10.90;;;6.15;;
26082;SDS011;13848;49.018;12.078;2023-06-22T01:44:14;10.10;;;6.28;;
26082;SDS011;13848;49.018;12.078;2023-06-22T01:46:42;10.38;;;6.47;;
26082;SDS011;13848;49.018;12.078;2023-06-22T01:49:08;9.77;;;5.90;;
26082;SDS011;13848;49.018;12.078;2023-06-22T01:51:35;9.70;;;6.68;;
26082;SDS011;13848;49.018;12.078;2023-06-22T01:54:01;8.02;;;6.18;;
26082;SDS011;13848;49.018;12.078;2023-06-22T01:56:27;9.27;;;6.32;;
26082;SDS011;13848;49.018;12.078;2023-06-22T01:58:55;10.07;;;6.47;;
26082;SDS011;13848;49.018;12.078;2023-06-22T02:01:28;11.27;;;6.85;;
26082;SDS011;13848;49.018;12.078;2023-06-22T02:04:05;11.35;;;6.30;;
26082;SDS011;13848;49.018;12.078;2023-06-22T02:06:35;12.32;;;7.15;;
26082;SDS011;13848;49.018;12.078;2023-06-22T02:09:06;10.93;;;6.55;;
26082;SDS011;13848;49.018;12.078;2023-06-22T02:11:35;9.75;;;6.13;;
26082;SDS011;13848;49.018;12.078;2023-06-22T02:14:02;10.63;;;6.30;;
26082;SDS011;13848;49.018;12.078;2023-06-22T02:16:31;9.02;;;6.63;;
26082;SDS011;13848;49.018;12.078;2023-06-22T02:18:57;9.13;;;5.90;;
26082;SDS011;13848;49.018;12.078;2023-06-22T02:21:28;8.73;;;6.13;;
26082;SDS011;13848;49.018;12.078;2023-06-22T02:23:55;8.18;;;6.72;;
26082;SDS011;13848;49.018;12.078;2023-06-22T02:26:21;11.00;;;6.63;;
26082;SDS011;13848;49.018;12.078;2023-06-22T02:28:47;8.43;;;6.35;;
26082;SDS011;13848;49.018;12.078;2023-06-22T02:31:13;13.48;;;6.75;;
26082;SDS011;13848;49.018;12.078;2023-06-22T02:33:38;9.50;;;6.45;;
26082;SDS011;13848;49.018;12.078;2023-06-22T02:36:04;9.23;;;6.28;;
26082;SDS011;13848;49.018;12.078;2023-06-22T02:38:32;8.60;;;6.60;;
26082;SDS011;13848;49.018;12.078;2023-06-22T02:40:58;10.95;;;6.85;;
26082;SDS011;13848;49.018;12.078;2023-06-22T02:43:24;10.52;;;6.18;;
26082;SDS011;13848;49.018;12.078;2023-06-22T02:45:50;9.65;;;6.60;;
26082;SDS011;13848;49.018;12.078;2023-06-22T02:48:16;10.38;;;6.47;;
26082;SDS011;13848;49.018;12.078;2023-06-22T02:50:42;9.32;;;6.07;;
26082;SDS011;13848;49.018;12.078;2023-06-22T02:53:07;9.30;;;6.78;;
26082;SDS011;13848;49.018;12.078;2023-06-22T02:55:35;10.05;;;6.78;;
26082;SDS011;13848;49.018;12.078;2023-06-22T02:58:01;10.52;;;6.95;;
26082;SDS011;13848;49.018;12.078;2023-06-22T03:00:27;12.52;;;6.90;;
26082;SDS011;13848;49.018;12.078;2023-06-22T03:02:53;11.10;;;7.80;;
26082;SDS011;13848;49.018;12.078;2023-06-22T03:05:18;10.82;;;7.15;;
26082;SDS011;13848;49.018;12.078;2023-06-22T03:07:44;7.70;;;6.95;;
26082;SDS011;13848;49.018;12.078;2023-06-22T03:10:11;11.95;;;7.00;;
26082;SDS011;13848;49.018;12.078;2023-06-22T03:12:39;8.90;;;6.78;;
26082;SDS011;13848;49.018;12.078;2023-06-22T03:15:06;10.07;;;7.03;;
26082;SDS011;13848;49.018;12.078;2023-06-22T03:17:35;11.68;;;6.47;;
26082;SDS011;13848;49.018;12.078;2023-06-22T03:20:01;13.30;;;7.72;;
26082;SDS011;13848;49.018;12.078;2023-06-22T03:22:27;10.48;;;7.20;;
26082;SDS011;13848;49.018;12.078;2023-06-22T03:24:53;11.15;;;7.30;;
26082;SDS011;13848;49.018;12.078;2023-06-22T03:27:19;9.23;;;6.60;;
26082;SDS011;13848;49.018;12.078;2023-06-22T03:29:46;12.73;;;7.05;;
26082;SDS011;13848;49.018;12.078;2023-06-22T03:32:12;11.13;;;6.63;;
26082;SDS011;13848;49.018;12.078;2023-06-22T03:34:38;7.68;;;6.47;;
26082;SDS011;13848;49.018;12.078;2023-06-22T03:37:04;8.75;;;6.47;;
26082;SDS011;13848;49.018;12.078;2023-06-22T03:39:31;10.13;;;7.00;;
26082;SDS011;13848;49.018;12.078;2023-06-22T03:41:57;10.27;;;7.00;;
26082;SDS011;13848;49.018;12.078;2023-06-22T03:44:23;10.77;;;7.75;;
26082;SDS011;13848;49.018;12.078;2023-06-22T03:46:50;9.23;;;7.03;;
26082;SDS011;13848;49.018;12.078;2023-06-22T03:49:16;11.52;;;7.28;;
26082;SDS011;13848;49.018;12.078;2023-06-22T03:51:42;9.00;;;7.40;;
26082;SDS011;13848;49.018;12.078;2023-06-22T03:54:07;10.43;;;7.60;;
26082;SDS011;13848;49.018;12.078;2023-06-22T03:56:34;10.30;;;7.68;;
26082;SDS011;13848;49.018;12.078;2023-06-22T03:58:59;10.02;;;7.90;;
26082;SDS011;13848;49.018;12.078;2023-06-22T04:01:25;13.93;;;7.82;;
26082;SDS011;13848;49.018;12.078;2023-06-22T04:03:53;11.45;;;8.57;;
26082;SDS011;13848;49.018;12.078;2023-06-22T04:06:18;10.05;;;8.00;;
26082;SDS011;13848;49.018;12.078;2023-06-22T04:08:45;13.95;;;8.98;;
26082;SDS011;13848;49.018;12.078;2023-06-22T04:11:11;10.70;;;8.15;;
26082;SDS011;13848;49.018;12.078;2023-06-22T04:13:37;10.95;;;8.68;;
26082;SDS011;13848;49.018;12.078;2023-06-22T04:16:03;12.10;;;8.60;;
26082;SDS011;13848;49.018;12.078;2023-06-22T04:18:29;14.63;;;9.27;;
26082;SDS011;13848;49.018;12.078;2023-06-22T04:20:56;12.32;;;7.53;;
26082;SDS011;13848;49.018;12.078;2023-06-22T04:23:22;14.65;;;8.07;;
26082;SDS011;13848;49.018;12.078;2023-06-22T04:25:48;15.30;;;9.00;;
26082;SDS011;13848;49.018;12.078;2023-06-22T04:28:14;17.85;;;8.63;;
26082;SDS011;13848;49.018;12.078;2023-06-22T04:30:40;11.85;;;9.15;;
26082;SDS011;13848;49.018;12.078;2023-06-22T04:33:06;11.20;;;8.90;;
26082;SDS011;13848;49.018;12.078;2023-06-22T04:35:32;11.07;;;8.05;;
26082;SDS011;13848;49.018;12.078;2023-06-22T04:37:59;12.25;;;8.35;;
26082;SDS011;13848;49.018;12.078;2023-06-22T04:40:25;11.13;;;8.25;;
26082;SDS011;13848;49.018;12.078;2023-06-22T04:42:51;12.40;;;7.72;;
26082;SDS011;13848;49.018;12.078;2023-06-22T04:45:17;12.20;;;8.27;;
26082;SDS011;13848;49.018;12.078;2023-06-22T04:47:43;10.43;;;7.80;;
26082;SDS011;13848;49.018;12.078;2023-06-22T04:50:09;9.68;;;7.97;;
26082;SDS011;13848;49.018;12.078;2023-06-22T04:52:34;10.73;;;8.02;;
26082;SDS011;13848;49.018;12.078;2023-06-22T04:55:02;10.63;;;7.68;;
26082;SDS011;13848;49.018;12.078;2023-06-22T04:57:28;12.70;;;8.00;;
26082;SDS011;13848;49.018;12.078;2023-06-22T04:59:54;9.40;;;7.40;;
26082;SDS011;13848;49.018;12.078;2023-06-22T05:02:20;11.07;;;8.15;;
26082;SDS011;13848;49.018;12.078;2023-06-22T05:04:46;16.10;;;10.32;;
26082;SDS011;13848;49.018;12.078;2023-06-22T05:07:11;14.90;;;10.05;;
26082;SDS011;13848;49.018;12.078;2023-06-22T05:09:37;12.40;;;9.10;;
26082;SDS011;13848;49.018;12.078;2023-06-22T05:12:05;9.77;;;7.97;;
26082;SDS011;13848;49.018;12.078;2023-06-22T05:14:32;8.68;;;7.38;;
26082;SDS011;13848;49.018;12.078;2023-06-22T05:16:58;12.13;;;7.30;;
26082;SDS011;13848;49.018;12.078;2023-06-22T05:19:24;10.25;;;7.40;;
26082;SDS011;13848;49.018;12.078;2023-06-22T05:21:50;11.18;;;7.15;;
26082;SDS011;13848;49.018;12.078;2023-06-22T05:24:16;13.10;;;6.50;;
26082;SDS011;13848;49.018;12.078;2023-06-22T05:26:42;10.40;;;7.20;;
26082;SDS011;13848;49.018;12.078;2023-06-22T05:29:09;9.35;;;6.95;;
26082;SDS011;13848;49.018;12.078;2023-06-22T05:31:35;9.68;;;8.15;;
26082;SDS011;13848;49.018;12.078;2023-06-22T05:34:01;9.57;;;7.78;;
26082;SDS011;13848;49.018;12.078;2023-06-22T05:36:27;8.95;;;7.18;;
26082;SDS011;13848;49.018;12.078;2023-06-22T05:38:53;13.55;;;7.28;;
26082;SDS011;13848;49.018;12.078;2023-06-22T05:41:19;9.30;;;6.75;;
26082;SDS011;13848;49.018;12.078;2023-06-22T05:43:45;10.80;;;6.88;;
26082;SDS011;13848;49.018;12.078;2023-06-22T05:46:12;11.05;;;8.15;;
26082;SDS011;13848;49.018;12.078;2023-06-22T05:48:38;9.93;;;7.85;;
26082;SDS011;13848;49.018;12.078;2023-06-22T05:51:04;12.13;;;7.90;;
26082;SDS011;13848;49.018;12.078;2023-06-22T05:53:30;10.85;;;7.68;;
26082;SDS011;13848;49.018;12.078;2023-06-22T05:55:56;9.25;;;7.30;;
26082;SDS011;13848;49.018;12.078;2023-06-22T05:58:22;9.05;;;7.40;;
26082;SDS011;13848;49.018;12.078;2023-06-22T06:00:48;8.23;;;6.75;;
26082;SDS011;13848;49.018;12.078;2023-06-22T06:03:15;9.93;;;6.03;;
26082;SDS011;13848;49.018;12.078;2023-06-22T06:05:41;9.63;;;7.18;;
26082;SDS011;13848;49.018;12.078;2023-06-22T06:08:07;8.40;;;6.25;;
26082;SDS011;13848;49.018;12.078;2023-06-22T06:10:33;8.10;;;6.45;;
26082;SDS011;13848;49.018;12.078;2023-06-22T06:13:00;8.80;;;6.70;;
26082;SDS011;13848;49.018;12.078;2023-06-22T06:15:26;9.90;;;6.43;;
26082;SDS011;13848;49.018;12.078;2023-06-22T06:17:52;8.77;;;6.15;;
26082;SDS011;13848;49.018;12.078;2023-06-22T06:20:20;9.85;;;5.88;;
26082;SDS011;13848;49.018;12.078;2023-06-22T06:22:48;7.60;;;5.88;;
26082;SDS011;13848;49.018;12.078;2023-06-22T06:25:15;9.30;;;6.68;;
26082;SDS011;13848;49.018;12.078;2023-06-22T06:27:41;8.00;;;6.10;;
26082;SDS011;13848;49.018;12.078;2023-06-22T06:30:08;8.75;;;6.18;;
26082;SDS011;13848;49.018;12.078;2023-06-22T06:32:34;9.95;;;6.47;;
26082;SDS011;13848;49.018;12.078;2023-06-22T06:35:00;10.27;;;6.20;;
26082;SDS011;13848;49.018;12.078;2023-06-22T06:37:27;8.35;;;5.88;;
26082;SDS011;13848;49.018;12.078;2023-06-22T06:39:53;11.00;;;6.43;;
26082;SDS011;13848;49.018;12.078;2023-06-22T06:42:19;7.57;;;6.43;;
26082;SDS011;13848;49.018;12.078;2023-06-22T06:44:45;8.95;;;5.75;;
26082;SDS011;13848;49.018;12.078;2023-06-22T06:47:11;6.63;;;5.65;;
26082;SDS011;13848;49.018;12.078;2023-06-22T06:49:37;8.43;;;6.13;;
26082;SDS011;13848;49.018;12.078;2023-06-22T06:52:03;8.35;;;5.90;;
26082;SDS011;13848;49.018;12.078;2023-06-22T06:54:31;8.18;;;5.70;;
26082;SDS011;13848;49.018;12.078;2023-06-22T06:56:57;9.30;;;5.95;;
26082;SDS011;13848;49.018;12.078;2023-06-22T06:59:23;6.18;;;5.38;;
26082;SDS011;13848;49.018;12.078;2023-06-22T07:01:49;8.80;;;6.10;;
26082;SDS011;13848;49.018;12.078;2023-06-22T07:04:14;6.07;;;5.18;;
26082;SDS011;13848;49.018;12.078;2023-06-22T07:06:40;12.00;;;5.70;;
26082;SDS011;13848;49.018;12.078;2023-06-22T07:09:06;11.98;;;6.45;;
26082;SDS011;13848;49.018;12.078;2023-06-22T07:11:33;9.88;;;6.78;;
26082;SDS011;13848;49.018;12.078;2023-06-22T07:13:59;8.23;;;5.88;;
26082;SDS011;13848;49.018;12.078;2023-06-22T07:16:25;8.43;;;5.97;;
26082;SDS011;13848;49.018;12.078;2023-06-22T07:18:51;8.18;;;5.50;;
26082;SDS011;13848;49.018;12.078;2023-06-22T07:21:17;9.00;;;6.25;;
26082;SDS011;13848;49.018;12.078;2023-06-22T07:23:43;11.38;;;6.70;;
26082;SDS011;13848;49.018;12.078;2023-06-22T07:26:09;8.05;;;5.80;;
26082;SDS011;13848;49.018;12.078;2023-06-22T07:28:36;9.13;;;5.65;;
26082;SDS011;13848;49.018;12.078;2023-06-22T07:31:02;6.72;;;5.20;;
26082;SDS011;13848;49.018;12.078;2023-06-22T07:33:28;8.80;;;5.20;;
26082;SDS011;13848;49.018;12.078;2023-06-22T07:35:54;9.10;;;5.20;;
26082;SDS011;13848;49.018;12.078;2023-06-22T07:38:20;7.95;;;5.15;;
26082;SDS011;13848;49.018;12.078;2023-06-22T07:40:46;10.20;;;5.53;;
26082;SDS011;13848;49.018;12.078;2023-06-22T07:43:13;9.55;;;5.63;;
26082;SDS011;13848;49.018;12.078;2023-06-22T07:45:40;10.18;;;4.70;;
26082;SDS011;13848;49.018;12.078;2023-06-22T07:48:06;6.38;;;4.72;;
26082;SDS011;13848;49.018;12.078;2023-06-22T07:50:32;10.38;;;5.10;;
26082;SDS011;13848;49.018;12.078;2023-06-22T07:52:58;5.07;;;4.55;;
26082;SDS011;13848;49.018;12.078;2023-06-22T07:55:24;9.13;;;5.05;;
26082;SDS011;13848;49.018;12.078;2023-06-22T07:57:50;8.13;;;5.20;;
26082;SDS011;13848;49.018;12.078;2023-06-22T08:00:16;6.07;;;4.97;;
26082;SDS011;13848;49.018;12.078;2023-06-22T08:02:44;8.02;;;4.60;;
26082;SDS011;13848;49.018;12.078;2023-06-22T08:05:11;10.25;;;3.80;;
26082;SDS011;13848;49.018;12.078;2023-06-22T08:07:38;7.38;;;4.72;;
26082;SDS011;13848;49.018;12.078;2023-06-22T08:10:05;24.17;;;4.85;;
26082;SDS011;13848;49.018;12.078;2023-06-22T08:12:31;8.73;;;5.00;;
26082;SDS011;13848;49.018;12.078;2023-06-22T08:14:57;7.63;;;4.78;;
26082;SDS011;13848;49.018;12.078;2023-06-22T08:17:23;7.28;;;5.00;;
26082;SDS011;13848;49.018;12.078;2023-06-22T08:19:51;9.38;;;4.38;;
26082;SDS011;13848;49.018;12.078;2023-06-22T08:22:17;10.15;;;4.55;;
26082;SDS011;13848;49.018;12.078;2023-06-22T08:24:42;8.65;;;4.50;;
26082;SDS011;13848;49.018;12.078;2023-06-22T08:27:09;6.10;;;4.25;;
26082;SDS011;13848;49.018;12.078;2023-06-22T08:29:35;7.75;;;4.57;;
26082;SDS011;13848;49.018;12.078;2023-06-22T08:32:01;7.93;;;4.25;;
26082;SDS011;13848;49.018;12.078;2023-06-22T08:34:27;7.82;;;3.95;;
26082;SDS011;13848;49.018;12.078;2023-06-22T08:36:55;7.95;;;3.90;;
26082;SDS011;13848;49.018;12.078;2023-06-22T08:39:21;9.10;;;3.95;;
26082;SDS011;13848;49.018;12.078;2023-06-22T08:41:47;8.57;;;4.03;;
26082;SDS011;13848;49.018;12.078;2023-06-22T08:44:13;11.40;;;4.10;;
26082;SDS011;13848;49.018;12.078;2023-06-22T08:46:39;7.38;;;4.25;;
26082;SDS011;13848;49.018;12.078;2023-06-22T08:49:05;7.78;;;4.20;;
26082;SDS011;13848;49.018;12.078;2023-06-22T08:51:31;7.25;;;4.20;;
26082;SDS011;13848;49.018;12.078;2023-06-22T08:53:58;6.68;;;4.20;;
26082;SDS011;13848;49.018;12.078;2023-06-22T08:56:24;9.02;;;4.20;;
26082;SDS011;13848;49.018;12.078;2023-06-22T08:58:50;6.63;;;3.90;;
26082;SDS011;13848;49.018;12.078;2023-06-22T09:01:16;9.20;;;3.83;;
26082;SDS011;13848;49.018;12.078;2023-06-22T09:03:42;6.53;;;4.22;;
26082;SDS011;13848;49.018;12.078;2023-06-22T09:06:08;7.20;;;3.95;;
26082;SDS011;13848;49.018;12.078;2023-06-22T09:08:34;9.25;;;4.10;;
26082;SDS011;13848;49.018;12.078;2023-06-22T09:11:01;8.52;;;4.50;;
26082;SDS011;13848;49.018;12.078;2023-06-22T09:13:27;6.68;;;4.05;;
26082;SDS011;13848;49.018;12.078;2023-06-22T09:15:56;9.65;;;4.57;;
26082;SDS011;13848;49.018;12.078;2023-06-22T09:18:22;6.13;;;4.13;;
26082;SDS011;13848;49.018;12.078;2023-06-22T09:20:47;9.32;;;4.13;;
26082;SDS011;13848;49.018;12.078;2023-06-22T09:23:13;6.80;;;3.95;;
26082;SDS011;13848;49.018;12.078;2023-06-22T09:25:39;11.57;;;4.68;;
26082;SDS011;13848;49.018;12.078;2023-06-22T09:28:07;8.18;;;4.22;;
26082;SDS011;13848;49.018;12.078;2023-06-22T09:30:33;5.28;;;4.00;;
26082;SDS011;13848;49.018;12.078;2023-06-22T09:32:58;8.95;;;4.30;;
26082;SDS011;13848;49.018;12.078;2023-06-22T09:35:24;5.13;;;3.95;;
26082;SDS011;13848;49.018;12.078;2023-06-22T09:37:50;9.27;;;4.13;;
26082;SDS011;13848;49.018;12.078;2023-06-22T09:40:16;8.38;;;3.97;;
26082;SDS011;13848;49.018;12.078;2023-06-22T09:42:42;7.38;;;3.72;;
26082;SDS011;13848;49.018;12.078;2023-06-22T09:45:10;5.95;;;4.03;;
26082;SDS011;13848;49.018;12.078;2023-06-22T09:47:36;8.02;;;4.43;;
26082;SDS011;13848;49.018;12.078;2023-06-22T09:50:02;7.72;;;3.88;;
26082;SDS011;13848;49.018;12.078;2023-06-22T09:52:28;10.38;;;4.20;;
26082;SDS011;13848;49.018;12.078;2023-06-22T09:54:54;10.48;;;4.45;;
26082;SDS011;13848;49.018;12.078;2023-06-22T09:57:20;10.88;;;4.45;;
26082;SDS011;13848;49.018;12.078;2023-06-22T09:59:45;7.07;;;4.10;;
26082;SDS011;13848;49.018;12.078;2023-06-22T10:02:13;9.38;;;4.07;;
26082;SDS011;13848;49.018;12.078;2023-06-22T10:04:39;11.90;;;4.32;;
26082;SDS011;13848;49.018;12.078;2023-06-22T10:07:05;7.15;;;4.05;;
26082;SDS011;13848;49.018;12.078;2023-06-22T10:09:31;9.43;;;4.30;;
26082;SDS011;13848;49.018;12.078;2023-06-22T10:11:57;7.68;;;4.65;;
26082;SDS011;13848;49.018;12.078;2023-06-22T10:14:23;7.60;;;4.63;;
26082;SDS011;13848;49.018;12.078;2023-06-22T10:16:48;7.95;;;4.50;;
26082;SDS011;13848;49.018;12.078;2023-06-22T10:19:16;11.25;;;4.40;;
26082;SDS011;13848;49.018;12.078;2023-06-22T10:21:42;10.93;;;4.25;;
26082;SDS011;13848;49.018;12.078;2023-06-22T10:24:08;20.23;;;5.55;;
26082;SDS011;13848;49.018;12.078;2023-06-22T10:26:34;7.43;;;4.22;;
26082;SDS011;13848;49.018;12.078;2023-06-22T10:29:00;6.05;;;4.40;;
26082;SDS011;13848;49.018;12.078;2023-06-22T10:31:26;9.57;;;4.53;;
26082;SDS011;13848;49.018;12.078;2023-06-22T10:33:52;9.55;;;4.50;;
26082;SDS011;13848;49.018;12.078;2023-06-22T10:36:20;6.88;;;4.50;;
26082;SDS011;13848;49.018;12.078;2023-06-22T10:38:46;6.78;;;3.95;;
26082;SDS011;13848;49.018;12.078;2023-06-22T10:41:12;8.70;;;4.15;;
26082;SDS011;13848;49.018;12.078;2023-06-22T10:43:38;8.57;;;4.50;;
26082;SDS011;13848;49.018;12.078;2023-06-22T10:46:04;6.88;;;4.32;;
26082;SDS011;13848;49.018;12.078;2023-06-22T10:48:30;6.93;;;4.72;;
26082;SDS011;13848;49.018;12.078;2023-06-22T10:50:56;7.65;;;4.53;;
26082;SDS011;13848;49.018;12.078;2023-06-22T10:53:23;11.55;;;4.78;;
26082;SDS011;13848;49.018;12.078;2023-06-22T10:55:49;7.22;;;4.20;;
26082;SDS011;13848;49.018;12.078;2023-06-22T10:58:15;8.20;;;4.13;;
26082;SDS011;13848;49.018;12.078;2023-06-22T11:00:41;10.88;;;4.78;;
26082;SDS011;13848;49.018;12.078;2023-06-22T11:03:07;9.15;;;4.60;;
26082;SDS011;13848;49.018;12.078;2023-06-22T11:05:33;7.32;;;4.78;;
26082;SDS011;13848;49.018;12.078;2023-06-22T11:07:58;9.02;;;4.60;;
26082;SDS011;13848;49.018;12.078;2023-06-22T11:10:26;10.43;;;4.32;;
26082;SDS011;13848;49.018;12.078;2023-06-22T11:12:52;7.45;;;4.05;;
26082;SDS011;13848;49.018;12.078;2023-06-22T11:15:18;12.05;;;4.55;;
26082;SDS011;13848;49.018;12.078;2023-06-22T11:17:43;6.95;;;4.32;;
26082;SDS011;13848;49.018;12.078;2023-06-22T11:20:10;7.78;;;4.45;;
26082;SDS011;13848;49.018;12.078;2023-06-22T11:22:37;17.45;;;4.63;;
26082;SDS011;13848;49.018;12.078;2023-06-22T11:25:03;9.43;;;4.38;;
26082;SDS011;13848;49.018;12.078;2023-06-22T11:27:31;8.25;;;4.28;;
26082;SDS011;13848;49.018;12.078;2023-06-22T11:29:57;10.40;;;4.70;;
26082;SDS011;13848;49.018;12.078;2023-06-22T11:32:23;9.10;;;4.68;;
26082;SDS011;13848;49.018;12.078;2023-06-22T11:34:49;11.50;;;4.43;;
26082;SDS011;13848;49.018;12.078;2023-06-22T11:37:15;10.13;;;4.20;;
26082;SDS011;13848;49.018;12.078;2023-06-22T11:39:41;10.25;;;4.47;;
26082;SDS011;13848;49.018;12.078;2023-06-22T11:42:07;11.68;;;4.80;;
26082;SDS011;13848;49.018;12.078;2023-06-22T11:44:35;8.77;;;4.60;;
26082;SDS011;13848;49.018;12.078;2023-06-22T11:47:01;10.95;;;4.35;;
26082;SDS011;13848;49.018;12.078;2023-06-22T11:49:27;11.40;;;4.63;;
26082;SDS011;13848;49.018;12.078;2023-06-22T11:51:53;13.25;;;5.07;;
26082;SDS011;13848;49.018;12.078;2023-06-22T11:54:19;10.10;;;4.82;;
26082;SDS011;13848;49.018;12.078;2023-06-22T11:56:44;9.48;;;4.78;;
26082;SDS011;13848;49.018;12.078;2023-06-22T11:59:10;12.27;;;5.20;;
26082;SDS011;13848;49.018;12.078;2023-06-22T12:01:38;10.25;;;4.55;;
26082;SDS011;13848;49.018;12.078;2023-06-22T12:04:03;9.60;;;5.00;;
26082;SDS011;13848;49.018;12.078;2023-06-22T12:06:29;10.73;;;4.60;;
26082;SDS011;13848;49.018;12.078;2023-06-22T12:08:55;7.90;;;5.15;;
26082;SDS011;13848;49.018;12.078;2023-06-22T12:11:21;8.57;;;4.72;;
26082;SDS011;13848;49.018;12.078;2023-06-22T12:13:47;10.07;;;4.65;;
26082;SDS011;13848;49.018;12.078;2023-06-22T12:16:13;11.05;;;4.90;;
26082;SDS011;13848;49.018;12.078;2023-06-22T12:18:40;15.98;;;5.30;;
26082;SDS011;13848;49.018;12.078;2023-06-22T12:21:07;11.48;;;5.35;;
26082;SDS011;13848;49.018;12.078;2023-06-22T12:23:33;6.25;;;4.38;;
26082;SDS011;13848;49.018;12.078;2023-06-22T12:25:59;11.90;;;5.10;;
26082;SDS011;13848;49.018;12.078;2023-06-22T12:28:25;10.77;;;4.80;;
26082;SDS011;13848;49.018;12.078;2023-06-22T12:30:51;11.13;;;4.95;;
26082;SDS011;13848;49.018;12.078;2023-06-22T12:33:17;10.02;;;4.65;;
26082;SDS011;13848;49.018;12.078;2023-06-22T12:35:45;8.10;;;4.68;;
26082;SDS011;13848;49.018;12.078;2023-06-22T12:38:11;10.18;;;5.00;;
26082;SDS011;13848;49.018;12.078;2023-06-22T12:40:37;12.40;;;4.47;;
26082;SDS011;13848;49.018;12.078;2023-06-22T12:43:03;10.40;;;4.72;;
26082;SDS011;13848;49.018;12.078;2023-06-22T12:45:29;10.82;;;4.88;;
26082;SDS011;13848;49.018;12.078;2023-06-22T12:47:55;11.07;;;4.50;;
26082;SDS011;13848;49.018;12.078;2023-06-22T12:50:21;10.15;;;4.75;;
26082;SDS011;13848;49.018;12.078;2023-06-22T12:52:48;10.60;;;5.10;;
26082;SDS011;13848;49.018;12.078;2023-06-22T12:55:14;10.23;;;4.60;;
26082;SDS011;13848;49.018;12.078;2023-06-22T12:57:40;23.60;;;5.28;;
26082;SDS011;13848;49.018;12.078;2023-06-22T13:00:06;8.38;;;4.30;;
26082;SDS011;13848;49.018;12.078;2023-06-22T13:02:33;12.40;;;4.57;;
26082;SDS011;13848;49.018;12.078;2023-06-22T13:04:59;15.30;;;4.68;;
26082;SDS011;13848;49.018;12.078;2023-06-22T13:07:25;16.75;;;4.65;;
26082;SDS011;13848;49.018;12.078;2023-06-22T13:09:52;8.20;;;4.68;;
26082;SDS011;13848;49.018;12.078;2023-06-22T13:12:18;9.48;;;4.53;;
26082;SDS011;13848;49.018;12.078;2023-06-22T13:14:45;12.18;;;4.70;;
26082;SDS011;13848;49.018;12.078;2023-06-22T13:17:10;12.75;;;5.05;;
26082;SDS011;13848;49.018;12.078;2023-06-22T13:19:36;9.40;;;4.78;;
26082;SDS011;13848;49.018;12.078;2023-06-22T13:22:02;8.95;;;4.35;;
26082;SDS011;13848;49.018;12.078;2023-06-22T13:24:29;11.45;;;5.20;;
26082;SDS011;13848;49.018;12.078;2023-06-22T13:26:56;12.00;;;4.50;;
26082;SDS011;13848;49.018;12.078;2023-06-22T13:29:22;13.32;;;4.88;;
26082;SDS011;13848;49.018;12.078;2023-06-22T13:31:48;12.70;;;4.85;;
26082;SDS011;13848;49.018;12.078;2023-06-22T13:34:14;10.05;;;4.88;;
26082;SDS011;13848;49.018;12.078;2023-06-22T13:36:39;14.73;;;4.80;;
26082;SDS011;13848;49.018;12.078;2023-06-22T13:39:05;9.20;;;5.38;;
26082;SDS011;13848;49.018;12.078;2023-06-22T13:41:31;10.52;;;4.68;;
26082;SDS011;13848;49.018;12.078;2023-06-22T13:43:59;14.45;;;4.63;;
26082;SDS011;13848;49.018;12.078;2023-06-22T13:46:24;11.95;;;4.65;;
26082;SDS011;13848;49.018;12.078;2023-06-22T13:48:50;9.93;;;4.72;;
26082;SDS011;13848;49.018;12.078;2023-06-22T13:51:16;14.10;;;5.43;;
26082;SDS011;13848;49.018;12.078;2023-06-22T13:53:42;10.55;;;5.25;;
26082;SDS011;13848;49.018;12.078;2023-06-22T13:56:08;10.68;;;4.88;;
26082;SDS011;13848;49.018;12.078;2023-06-22T13:58:34;11.68;;;5.10;;
26082;SDS011;13848;49.018;12.078;2023-06-22T14:01:02;13.40;;;5.00;;
26082;SDS011;13848;49.018;12.078;2023-06-22T14:03:27;12.07;;;4.88;;
26082;SDS011;13848;49.018;12.078;2023-06-22T14:05:53;12.82;;;5.15;;
26082;SDS011;13848;49.018;12.078;2023-06-22T14:08:19;13.30;;;5.07;;
26082;SDS011;13848;49.018;12.078;2023-06-22T14:10:45;10.73;;;5.50;;
26082;SDS011;13848;49.018;12.078;2023-06-22T14:13:11;8.25;;;4.60;;
26082;SDS011;13848;49.018;12.078;2023-06-22T14:15:37;12.82;;;5.57;;
26082;SDS011;13848;49.018;12.078;2023-06-22T14:18:04;9.85;;;5.03;;
26082;SDS011;13848;49.018;12.078;2023-06-22T14:20:30;11.80;;;4.53;;
26082;SDS011;13848;49.018;12.078;2023-06-22T14:22:56;9.90;;;4.80;;